Time;durP1;ratioP1;P1;durP2;ratioP2;P2;SDS_P1;SDS_P2;PMS_P1;PMS_P2;Temp;Humidity;BMP_temperature;BMP_pressure;BME280_temperature;BME280_humidity;BME280_pressure;Samples;Min_cycle;Max_cycle;Signal;HPM_P1;HPM_P2
2022/10/23 00:00:31;;;;;;;84.33;42.23;;;;;;;;;;5011678;28;20042;-61
2022/10/23 00:02:58;;;;;;;84.50;43.60;;;;;;;;;;5012001;28;20048;-61
2022/10/23 00:05:25;;;;;;;69.20;39.10;;;;;;;;;;5011728;28;20060;-62
2022/10/23 00:07:51;;;;;;;90.57;43.20;;;;;;;;;;5011846;28;20528;-62
2022/10/23 00:10:18;;;;;;;73.27;37.47;;;;;;;;;;5016468;28;20041;-61
2022/10/23 00:12:44;;;;;;;91.50;42.53;;;;;;;;;;5031798;28;20044;-62
2022/10/23 00:15:10;;;;;;;80.70;40.57;;;;;;;;;;5027621;28;20129;-61
2022/10/23 00:17:37;;;;;;;75.53;38.30;;;;;;;;;;5011430;28;20042;-61
2022/10/23 00:20:03;;;;;;;63.37;36.97;;;;;;;;;;5011903;28;20061;-61
2022/10/23 00:22:29;;;;;;;78.40;38.67;;;;;;;;;;5023071;28;20051;-61
2022/10/23 00:24:55;;;;;;;90.03;42.03;;;;;;;;;;5029382;28;20045;-61
2022/10/23 00:27:21;;;;;;;75.87;37.27;;;;;;;;;;5009731;28;20500;-62
2022/10/23 00:29:47;;;;;;;79.93;39.23;;;;;;;;;;5011637;28;20056;-61
2022/10/23 00:32:13;;;;;;;76.50;39.37;;;;;;;;;;5011886;28;20385;-61
2022/10/23 00:34:39;;;;;;;60.97;35.63;;;;;;;;;;5011464;28;20089;-62
2022/10/23 00:37:05;;;;;;;63.93;35.20;;;;;;;;;;5011112;28;20140;-61
2022/10/23 00:39:31;;;;;;;67.40;35.53;;;;;;;;;;5011693;28;20042;-62
2022/10/23 00:41:57;;;;;;;67.27;35.37;;;;;;;;;;5030273;28;20052;-61
2022/10/23 00:44:23;;;;;;;62.73;34.47;;;;;;;;;;5030485;28;20048;-61
2022/10/23 00:46:49;;;;;;;59.43;34.97;;;;;;;;;;5030268;28;20053;-62
2022/10/23 00:49:15;;;;;;;63.53;36.10;;;;;;;;;;5031154;28;20044;-62
2022/10/23 00:51:47;;;;;;;55.97;33.57;;;;;;;;;;5013187;28;20103;-61
2022/10/23 00:54:13;;;;;;;57.27;32.97;;;;;;;;;;5011119;28;20076;-61
2022/10/23 00:56:41;;;;;;;54.83;31.77;;;;;;;;;;5011169;28;20041;-61
2022/10/23 00:59:07;;;;;;;61.27;32.03;;;;;;;;;;5010525;28;20364;-61
2022/10/23 01:01:33;;;;;;;49.03;29.80;;;;;;;;;;5011232;28;20046;-62
2022/10/23 01:04:01;;;;;;;59.20;33.80;;;;;;;;;;5010684;28;20050;-62
2022/10/23 01:06:56;;;;;;;70.53;34.27;;;;;;;;;;5011097;28;20416;-62
2022/10/23 01:09:31;;;;;;;74.60;37.77;;;;;;;;;;4998419;28;20336;-61
2022/10/23 01:11:57;;;;;;;83.57;39.20;;;;;;;;;;5010801;28;20124;-62
2022/10/23 01:14:31;;;;;;;76.27;37.83;;;;;;;;;;5010531;28;20601;-61
2022/10/23 01:17:16;;;;;;;49.67;29.43;;;;;;;;;;5019023;28;20459;-62
2022/10/23 01:19:47;;;;;;;64.90;32.23;;;;;;;;;;5020239;28;20054;-61
2022/10/23 01:22:27;;;;;;;57.20;31.13;;;;;;;;;;5029914;28;20048;-62
2022/10/23 01:24:57;;;;;;;53.90;29.83;;;;;;;;;;5030088;28;20041;-62
2022/10/23 01:27:45;;;;;;;60.53;31.37;;;;;;;;;;5028810;28;20045;-61
2022/10/23 01:30:14;;;;;;;54.27;30.83;;;;;;;;;;5012449;28;20458;-62
2022/10/23 01:32:46;;;;;;;65.70;35.17;;;;;;;;;;5010297;28;20054;-62
2022/10/23 01:35:16;;;;;;;49.07;28.67;;;;;;;;;;5009872;28;20097;-62
2022/10/23 01:37:43;;;;;;;63.63;31.70;;;;;;;;;;5010140;28;20516;-61
2022/10/23 01:40:13;;;;;;;60.40;31.37;;;;;;;;;;5014548;28;20566;-62
2022/10/23 01:42:43;;;;;;;82.70;38.43;;;;;;;;;;5029588;28;20042;-61
2022/10/23 01:45:12;;;;;;;82.13;38.53;;;;;;;;;;5010072;28;20050;-61
2022/10/23 01:47:38;;;;;;;72.60;34.83;;;;;;;;;;5027754;28;20046;-62
2022/10/23 01:50:05;;;;;;;77.27;37.97;;;;;;;;;;5029252;28;20125;-61
2022/10/23 01:52:31;;;;;;;61.73;34.67;;;;;;;;;;5029580;28;20045;-61
2022/10/23 01:54:59;;;;;;;60.13;33.87;;;;;;;;;;5015537;28;20250;-62
2022/10/23 01:57:26;;;;;;;59.90;35.93;;;;;;;;;;5009810;28;20046;-62
2022/10/23 01:59:56;;;;;;;84.93;38.50;;;;;;;;;;5009711;28;20084;-61
2022/10/23 02:02:23;;;;;;;89.23;40.73;;;;;;;;;;5009713;28;20046;-61
2022/10/23 02:04:55;;;;;;;77.03;40.47;;;;;;;;;;5009389;28;20038;-61
2022/10/23 02:07:22;;;;;;;75.77;36.53;;;;;;;;;;5009630;28;20045;-62
2022/10/23 02:09:48;;;;;;;69.97;36.37;;;;;;;;;;5024233;28;20041;-61
2022/10/23 02:12:21;;;;;;;115.60;45.63;;;;;;;;;;5019570;28;20049;-62
2022/10/23 02:14:53;;;;;;;79.57;40.43;;;;;;;;;;5009244;28;20136;-62
2022/10/23 02:17:38;;;;;;;95.50;43.27;;;;;;;;;;5024311;28;20049;-61
2022/10/23 02:20:13;;;;;;;89.10;41.40;;;;;;;;;;5028980;28;20111;-62
2022/10/23 02:22:42;;;;;;;74.63;37.47;;;;;;;;;;5018863;28;20068;-62
2022/10/23 02:25:13;;;;;;;80.07;39.03;;;;;;;;;;5009357;28;20456;-62
2022/10/23 02:27:41;;;;;;;84.07;40.37;;;;;;;;;;5026418;28;20042;-61
2022/10/23 02:30:09;;;;;;;76.87;37.97;;;;;;;;;;5029151;28;20048;-62
2022/10/23 02:32:36;;;;;;;82.83;41.80;;;;;;;;;;5029245;28;20053;-62
2022/10/23 02:35:03;;;;;;;76.63;40.23;;;;;;;;;;5028389;28;20061;-62
2022/10/23 02:37:29;;;;;;;81.50;40.10;;;;;;;;;;5013001;28;20054;-62
2022/10/23 02:39:55;;;;;;;96.17;46.63;;;;;;;;;;5009275;28;20093;-62
2022/10/23 02:42:24;;;;;;;84.77;42.83;;;;;;;;;;5009143;28;20046;-62
2022/10/23 02:44:50;;;;;;;76.30;38.97;;;;;;;;;;5008593;28;20508;-62
2022/10/23 02:47:19;;;;;;;107.70;49.47;;;;;;;;;;5021637;28;20111;-62
2022/10/23 02:49:56;;;;;;;91.37;44.43;;;;;;;;;;5027036;28;20048;-62
2022/10/23 02:52:37;;;;;;;87.43;42.83;;;;;;;;;;5016684;28;20500;-62
2022/10/23 02:55:06;;;;;;;115.73;49.50;;;;;;;;;;5009144;28;20057;-62
2022/10/23 02:57:32;;;;;;;109.10;48.47;;;;;;;;;;5023155;28;20056;-62
2022/10/23 03:00:07;;;;;;;75.83;40.37;;;;;;;;;;5028591;28;20037;-62
2022/10/23 03:02:41;;;;;;;118.97;50.03;;;;;;;;;;5028617;28;20046;-62
2022/10/23 03:05:07;;;;;;;;;;;;;;;;;;5028509;28;20045;-62
2022/10/23 03:07:33;;;;;;;87.90;42.57;;;;;;;;;;5027044;28;19921;-62
2022/10/23 03:09:59;;;;;;;101.67;45.60;;;;;;;;;;5028335;28;20052;-62
2022/10/23 03:12:25;;;;;;;106.00;46.53;;;;;;;;;;5028608;28;20061;-62
2022/10/23 03:14:51;;;;;;;89.57;40.47;;;;;;;;;;5028297;28;20049;-62
2022/10/23 03:17:17;;;;;;;84.73;41.90;;;;;;;;;;5027135;28;20050;-62
2022/10/23 03:19:43;;;;;;;92.37;43.33;;;;;;;;;;5028218;28;20044;-61
2022/10/23 03:22:09;;;;;;;84.37;38.33;;;;;;;;;;5019251;28;20041;-61
2022/10/23 03:24:35;;;;;;;78.93;38.23;;;;;;;;;;5009578;28;20125;-62
2022/10/23 03:27:01;;;;;;;75.93;38.00;;;;;;;;;;5008364;28;20050;-62
2022/10/23 03:29:27;;;;;;;98.33;46.50;;;;;;;;;;5008591;28;20049;-62
2022/10/23 03:31:54;;;;;;;89.53;42.57;;;;;;;;;;5008620;28;20041;-62
2022/10/23 03:34:20;;;;;;;83.37;41.00;;;;;;;;;;5008169;28;20065;-62
2022/10/23 03:36:46;;;;;;;96.27;44.40;;;;;;;;;;5008624;28;20100;-62
2022/10/23 03:39:12;;;;;;;98.90;44.93;;;;;;;;;;5007856;28;20050;-62
2022/10/23 03:41:38;;;;;;;99.37;44.43;;;;;;;;;;5016082;28;20565;-62
2022/10/23 03:44:04;;;;;;;79.67;39.57;;;;;;;;;;5028039;28;20507;-62
2022/10/23 03:46:30;;;;;;;79.03;36.90;;;;;;;;;;5027905;28;20056;-62
2022/10/23 03:48:57;;;;;;;75.47;38.13;;;;;;;;;;5008417;28;20037;-62
2022/10/23 03:51:23;;;;;;;97.93;44.00;;;;;;;;;;5008353;28;20045;-62
2022/10/23 03:53:49;;;;;;;90.77;40.83;;;;;;;;;;5008404;28;20057;-62
2022/10/23 03:56:16;;;;;;;87.03;38.47;;;;;;;;;;5008191;28;20050;-62
2022/10/23 03:58:42;;;;;;;58.03;32.40;;;;;;;;;;5008355;28;20038;-62
2022/10/23 04:01:08;;;;;;;72.10;36.20;;;;;;;;;;5013467;28;20038;-62
2022/10/23 04:03:34;;;;;;;86.07;41.20;;;;;;;;;;5028311;28;20042;-62
2022/10/23 04:06:00;;;;;;;84.60;39.53;;;;;;;;;;5027817;28;20041;-62
2022/10/23 04:08:26;;;;;;;66.43;33.83;;;;;;;;;;5027823;28;20307;-62
2022/10/23 04:10:53;;;;;;;73.77;36.33;;;;;;;;;;5026526;28;20064;-62
2022/10/23 04:13:19;;;;;;;90.20;40.47;;;;;;;;;;5011062;28;20042;-62
2022/10/23 04:15:52;;;;;;;67.30;34.23;;;;;;;;;;5009691;28;20133;-62
2022/10/23 04:18:18;;;;;;;58.45;31.63;;;;;;;;;;5011729;28;20049;-62
2022/10/23 04:20:47;;;;;;;67.50;36.13;;;;;;;;;;5011291;28;20116;-62
2022/10/23 04:23:13;;;;;;;61.67;31.13;;;;;;;;;;5010570;28;20515;-62
2022/10/23 04:25:40;;;;;;;74.53;34.20;;;;;;;;;;5011516;28;20044;-62
2022/10/23 04:28:06;;;;;;;53.30;30.23;;;;;;;;;;5027338;28;20042;-62
2022/10/23 04:30:32;;;;;;;66.63;32.77;;;;;;;;;;5014931;28;20041;-62
2022/10/23 04:32:58;;;;;;;65.23;33.13;;;;;;;;;;5011246;28;20042;-62
2022/10/23 04:35:24;;;;;;;67.50;34.63;;;;;;;;;;5011311;28;20165;-62
2022/10/23 04:37:50;;;;;;;71.40;35.60;;;;;;;;;;5011424;28;20081;-62
2022/10/23 04:40:16;;;;;;;68.57;35.93;;;;;;;;;;5023291;28;20088;-62
2022/10/23 04:42:42;;;;;;;59.47;32.70;;;;;;;;;;5016058;28;20046;-62
2022/10/23 04:45:08;;;;;;;61.70;33.40;;;;;;;;;;5010723;28;20081;-62
2022/10/23 04:47:34;;;;;;;82.47;38.67;;;;;;;;;;5010257;28;20053;-62
2022/10/23 04:50:00;;;;;;;84.53;38.03;;;;;;;;;;5018097;28;20111;-62
2022/10/23 04:52:26;;;;;;;74.60;36.57;;;;;;;;;;5030566;28;20049;-62
2022/10/23 04:54:52;;;;;;;62.50;31.57;;;;;;;;;;5030796;28;20454;-62
2022/10/23 04:57:18;;;;;;;59.90;32.23;;;;;;;;;;5030923;28;20049;-62
2022/10/23 04:59:44;;;;;;;89.00;41.63;;;;;;;;;;5020304;28;20049;-62
2022/10/23 05:02:10;;;;;;;72.03;37.00;;;;;;;;;;5019083;28;20041;-62
2022/10/23 05:04:36;;;;;;;85.33;40.37;;;;;;;;;;5019776;28;20045;-62
2022/10/23 05:07:02;;;;;;;80.43;36.60;;;;;;;;;;5026809;28;20077;-62
2022/10/23 05:09:28;;;;;;;85.37;40.57;;;;;;;;;;5010561;28;20081;-62
2022/10/23 05:11:54;;;;;;;68.30;34.17;;;;;;;;;;5010684;28;20535;-62
2022/10/23 05:14:20;;;;;;;81.47;38.23;;;;;;;;;;5015085;28;20053;-62
2022/10/23 05:16:48;;;;;;;70.77;36.33;;;;;;;;;;5030147;28;20496;-62
2022/10/23 05:19:15;;;;;;;81.63;37.70;;;;;;;;;;5029729;28;20041;-62
2022/10/23 05:21:41;;;;;;;95.60;42.47;;;;;;;;;;5021794;28;20042;-62
2022/10/23 05:24:07;;;;;;;98.50;42.87;;;;;;;;;;5023269;28;20048;-62
2022/10/23 05:26:33;;;;;;;107.47;45.80;;;;;;;;;;5028330;28;20566;-63
2022/10/23 05:28:59;;;;;;;78.83;37.23;;;;;;;;;;5024547;28;20038;-63
2022/10/23 05:31:25;;;;;;;91.83;42.07;;;;;;;;;;5023159;28;20080;-62
2022/10/23 05:33:52;;;;;;;67.23;35.80;;;;;;;;;;5029819;28;20053;-62
2022/10/23 05:36:19;;;;;;;71.90;36.33;;;;;;;;;;5011122;28;20081;-62
2022/10/23 05:38:45;;;;;;;88.63;40.27;;;;;;;;;;5010298;28;20521;-62
2022/10/23 05:41:11;;;;;;;77.20;35.33;;;;;;;;;;5010371;28;20041;-62
2022/10/23 05:43:37;;;;;;;64.20;34.03;;;;;;;;;;5016410;28;20073;-62
2022/10/23 05:46:05;;;;;;;93.57;43.00;;;;;;;;;;5030239;28;20084;-62
2022/10/23 05:48:31;;;;;;;65.80;34.30;;;;;;;;;;5028592;28;20049;-63
2022/10/23 05:51:01;;;;;;;95.33;41.13;;;;;;;;;;5029899;28;20085;-62
2022/10/23 05:53:27;;;;;;;77.73;37.80;;;;;;;;;;5017163;28;20050;-62
2022/10/23 05:55:53;;;;;;;79.77;37.73;;;;;;;;;;5010149;28;20079;-62
2022/10/23 05:58:19;;;;;;;77.17;37.23;;;;;;;;;;5010087;28;20073;-62
2022/10/23 06:00:45;;;;;;;61.17;32.60;;;;;;;;;;5010128;28;20134;-63
2022/10/23 06:03:11;;;;;;;76.13;36.40;;;;;;;;;;5009805;28;20121;-62
2022/10/23 06:05:37;;;;;;;61.03;34.37;;;;;;;;;;5009178;28;20045;-62
2022/10/23 06:08:04;;;;;;;72.13;35.13;;;;;;;;;;5009696;28;20104;-63
2022/10/23 06:10:30;;;;;;;71.37;33.80;;;;;;;;;;5009286;28;20173;-62
2022/10/23 06:12:56;;;;;;;80.47;37.37;;;;;;;;;;5016933;28;20121;-62
2022/10/23 06:15:22;;;;;;;68.07;34.43;;;;;;;;;;5027230;28;20610;-62
2022/10/23 06:17:48;;;;;;;55.60;31.33;;;;;;;;;;5029245;28;20055;-62
2022/10/23 06:20:14;;;;;;;73.13;34.53;;;;;;;;;;5018506;28;20534;-62
2022/10/23 06:22:40;;;;;;;63.20;30.90;;;;;;;;;;5009503;28;20038;-62
2022/10/23 06:25:07;;;;;;;59.67;31.33;;;;;;;;;;5010570;28;20092;-62
2022/10/23 06:27:33;;;;;;;72.37;35.47;;;;;;;;;;5016601;28;20518;-62
2022/10/23 06:29:59;;;;;;;78.07;37.37;;;;;;;;;;5024625;28;20041;-62
2022/10/23 06:32:25;;;;;;;69.43;33.83;;;;;;;;;;5017991;28;20049;-62
2022/10/23 06:34:51;;;;;;;71.10;33.17;;;;;;;;;;5027995;28;20058;-62
2022/10/23 06:37:17;;;;;;;60.57;30.60;;;;;;;;;;5027695;28;20050;-62
2022/10/23 06:39:43;;;;;;;70.40;33.73;;;;;;;;;;5013940;28;20120;-62
2022/10/23 06:42:09;;;;;;;62.33;33.03;;;;;;;;;;5015546;28;20128;-62
2022/10/23 06:44:35;;;;;;;76.43;35.60;;;;;;;;;;5012311;28;20053;-62
2022/10/23 06:47:01;;;;;;;55.50;29.23;;;;;;;;;;5026175;28;20049;-62
2022/10/23 06:49:27;;;;;;;58.53;31.47;;;;;;;;;;5019964;28;20053;-62
2022/10/23 06:51:53;;;;;;;55.90;29.07;;;;;;;;;;5008673;28;20056;-62
2022/10/23 06:54:19;;;;;;;65.90;32.20;;;;;;;;;;5022355;28;20045;-63
2022/10/23 06:56:45;;;;;;;69.97;33.73;;;;;;;;;;5018539;28;20042;-62
2022/10/23 06:59:13;;;;;;;52.87;28.93;;;;;;;;;;5009502;28;20065;-62
2022/10/23 07:01:39;;;;;;;81.07;37.47;;;;;;;;;;5011155;28;20133;-62
2022/10/23 07:04:05;;;;;;;59.90;31.40;;;;;;;;;;5009315;28;20057;-62
2022/10/23 07:06:31;;;;;;;62.90;30.20;;;;;;;;;;5008633;28;20052;-62
2022/10/23 07:08:58;;;;;;;64.77;32.17;;;;;;;;;;5008588;28;20050;-62
2022/10/23 07:11:24;;;;;;;58.67;30.57;;;;;;;;;;5008746;28;20041;-62
2022/10/23 07:13:50;;;;;;;68.17;32.30;;;;;;;;;;5014189;28;20060;-62
2022/10/23 07:16:19;;;;;;;50.23;26.30;;;;;;;;;;5027687;28;20629;-62
2022/10/23 07:18:46;;;;;;;45.10;26.23;;;;;;;;;;5028265;28;20080;-62
2022/10/23 07:21:12;;;;;;;63.87;31.73;;;;;;;;;;5028144;28;20053;-62
2022/10/23 07:23:38;;;;;;;62.53;29.33;;;;;;;;;;5026149;28;20045;-62
2022/10/23 07:26:06;;;;;;;57.63;28.53;;;;;;;;;;5028327;28;20049;-62
2022/10/23 07:28:32;;;;;;;45.63;27.20;;;;;;;;;;5026795;28;20527;-63
2022/10/23 07:30:58;;;;;;;56.97;29.07;;;;;;;;;;5022079;28;20165;-62
2022/10/23 07:33:25;;;;;;;50.67;27.17;;;;;;;;;;5017750;28;20121;-62
2022/10/23 07:35:51;;;;;;;47.13;23.90;;;;;;;;;;5027859;28;20426;-62
2022/10/23 07:38:17;;;;;;;40.87;21.83;;;;;;;;;;5027849;28;20633;-62
2022/10/23 07:40:44;;;;;;;45.40;24.07;;;;;;;;;;5021303;28;20045;-62
2022/10/23 07:43:10;;;;;;;56.90;27.43;;;;;;;;;;5007993;28;20496;-62
2022/10/23 07:45:36;;;;;;;44.80;23.47;;;;;;;;;;5026871;28;20061;-62
2022/10/23 07:48:02;;;;;;;40.13;24.93;;;;;;;;;;5021560;28;20042;-62
2022/10/23 07:50:28;;;;;;;44.03;22.80;;;;;;;;;;5008761;28;20041;-62
2022/10/23 07:52:54;;;;;;;44.47;20.53;;;;;;;;;;5012332;28;20431;-62
2022/10/23 07:55:20;;;;;;;45.73;23.13;;;;;;;;;;5012531;28;20553;-62
2022/10/23 07:57:46;;;;;;;45.07;23.57;;;;;;;;;;5012339;28;20321;-62
2022/10/23 08:00:12;;;;;;;38.70;21.07;;;;;;;;;;5011525;28;20131;-62
2022/10/23 08:02:38;;;;;;;33.73;19.47;;;;;;;;;;5012101;28;20046;-62
2022/10/23 08:05:05;;;;;;;39.17;20.50;;;;;;;;;;5018830;28;20058;-62
2022/10/23 08:07:31;;;;;;;40.90;21.70;;;;;;;;;;5011954;28;20057;-62
2022/10/23 08:09:57;;;;;;;33.57;19.97;;;;;;;;;;5028371;28;20515;-62
2022/10/23 08:12:23;;;;;;;31.17;19.30;;;;;;;;;;5022026;28;20451;-62
2022/10/23 08:14:49;;;;;;;40.73;20.10;;;;;;;;;;5030167;28;20094;-62
2022/10/23 08:17:15;;;;;;;33.80;20.23;;;;;;;;;;5031148;28;20068;-62
2022/10/23 08:19:45;;;;;;;30.53;18.67;;;;;;;;;;5030927;28;20494;-62
2022/10/23 08:22:11;;;;;;;30.20;17.50;;;;;;;;;;5028211;28;20132;-62
2022/10/23 08:24:37;;;;;;;36.40;19.90;;;;;;;;;;5031023;28;20487;-62
2022/10/23 08:27:03;;;;;;;37.10;18.87;;;;;;;;;;5031132;28;20064;-62
2022/10/23 08:29:29;;;;;;;25.53;16.37;;;;;;;;;;5030746;28;20046;-62
2022/10/23 08:31:56;;;;;;;36.23;19.20;;;;;;;;;;5011730;28;20052;-62
2022/10/23 08:34:22;;;;;;;30.67;18.60;;;;;;;;;;5030265;28;20387;-62
2022/10/23 08:36:49;;;;;;;30.70;16.37;;;;;;;;;;5016066;28;20046;-62
2022/10/23 08:39:15;;;;;;;32.00;19.10;;;;;;;;;;5020839;28;20054;-62
2022/10/23 08:41:42;;;;;;;27.67;15.70;;;;;;;;;;5010155;28;20049;-62
2022/10/23 08:44:12;;;;;;;26.37;16.40;;;;;;;;;;5011019;28;20104;-62
2022/10/23 08:46:42;;;;;;;27.37;17.77;;;;;;;;;;5015419;28;20416;-62
2022/10/23 08:49:18;;;;;;;27.77;14.67;;;;;;;;;;5020698;28;20049;-62
2022/10/23 08:51:46;;;;;;;25.37;14.93;;;;;;;;;;5010440;28;20037;-62
2022/10/23 08:54:12;;;;;;;30.17;16.37;;;;;;;;;;5011797;28;20049;-62
2022/10/23 08:56:41;;;;;;;24.83;13.93;;;;;;;;;;5011449;28;20038;-62
2022/10/23 08:59:07;;;;;;;24.27;14.53;;;;;;;;;;5021325;28;20050;-62
2022/10/23 09:01:43;;;;;;;25.27;13.43;;;;;;;;;;5021541;28;20624;-62
2022/10/23 09:04:12;;;;;;;25.17;15.60;;;;;;;;;;5029510;28;20132;-62
2022/10/23 09:06:51;;;;;;;22.93;13.03;;;;;;;;;;5011054;28;20460;-62
2022/10/23 09:09:20;;;;;;;18.63;11.73;;;;;;;;;;5010859;28;20517;-62
2022/10/23 09:11:50;;;;;;;16.30;11.07;;;;;;;;;;5011613;28;20290;-62
2022/10/23 09:14:26;;;;;;;17.17;10.73;;;;;;;;;;5011384;28;20133;-62
2022/10/23 09:17:04;;;;;;;25.37;12.60;;;;;;;;;;5014637;28;20041;-62
2022/10/23 09:19:30;;;;;;;19.40;11.00;;;;;;;;;;5010821;28;20038;-62
2022/10/23 09:21:57;;;;;;;16.80;10.23;;;;;;;;;;5011031;28;20540;-62
2022/10/23 09:24:24;;;;;;;14.27;9.90;;;;;;;;;;5029743;28;20037;-63
2022/10/23 09:26:51;;;;;;;16.30;10.27;;;;;;;;;;5013851;28;20127;-62
2022/10/23 09:29:25;;;;;;;19.73;11.30;;;;;;;;;;5022766;28;20041;-62
2022/10/23 09:32:05;;;;;;;17.43;10.20;;;;;;;;;;5009692;28;20050;-62
2022/10/23 09:34:33;;;;;;;14.93;10.70;;;;;;;;;;5009529;28;20069;-62
2022/10/23 09:37:02;;;;;;;14.07;9.87;;;;;;;;;;5026982;28;20053;-63
2022/10/23 09:39:32;;;;;;;17.13;9.80;;;;;;;;;;5017257;28;20503;-62
2022/10/23 09:41:59;;;;;;;15.80;9.10;;;;;;;;;;5020898;28;21324;-62
2022/10/23 09:44:29;;;;;;;14.47;8.87;;;;;;;;;;5018726;28;20084;-62
2022/10/23 09:46:59;;;;;;;18.53;8.73;;;;;;;;;;5024076;28;20046;-63
2022/10/23 09:49:26;;;;;;;14.30;9.17;;;;;;;;;;5009635;28;20049;-62
2022/10/23 09:52:01;;;;;;;14.37;9.00;;;;;;;;;;5019093;28;20049;-62
2022/10/23 09:54:29;;;;;;;21.10;9.60;;;;;;;;;;5029979;28;20594;-62
2022/10/23 09:56:56;;;;;;;14.27;8.77;;;;;;;;;;5020884;28;20446;-62
2022/10/23 09:59:25;;;;;;;15.80;8.57;;;;;;;;;;5015789;28;20038;-62
2022/10/23 10:01:55;;;;;;;12.27;8.53;;;;;;;;;;5028056;28;20468;-62
2022/10/23 10:04:31;;;;;;;8.87;6.70;;;;;;;;;;5016062;28;20475;-62
2022/10/23 10:06:58;;;;;;;13.17;7.23;;;;;;;;;;5022239;28;20487;-62
2022/10/23 10:09:26;;;;;;;10.33;7.27;;;;;;;;;;5023152;28;20107;-62
2022/10/23 10:11:52;;;;;;;12.63;6.13;;;;;;;;;;5009450;28;20192;-62
2022/10/23 10:14:29;;;;;;;10.43;6.50;;;;;;;;;;5025498;28;20050;-62
2022/10/23 10:17:14;;;;;;;12.90;6.33;;;;;;;;;;5014779;28;20131;-61
2022/10/23 10:20:18;;;;;;;14.43;6.00;;;;;;;;;;5015412;28;20042;-62
2022/10/23 10:22:53;;;;;;;20.37;6.67;;;;;;;;;;4948254;29;20047;-62
2022/10/23 10:25:29;;;;;;;8.77;5.73;;;;;;;;;;4948965;29;20102;-61
2022/10/23 10:28:01;;;;;;;12.90;5.90;;;;;;;;;;4982389;28;20057;-62
2022/10/23 10:30:33;;;;;;;6.90;4.67;;;;;;;;;;5008260;28;20107;-62
2022/10/23 10:33:07;;;;;;;9.47;5.27;;;;;;;;;;5008529;28;20038;-62
2022/10/23 10:35:52;;;;;;;9.47;4.83;;;;;;;;;;5008644;28;20471;-62
2022/10/23 10:38:18;;;;;;;10.70;4.60;;;;;;;;;;5007462;28;20049;-62
2022/10/23 10:40:51;;;;;;;9.57;5.07;;;;;;;;;;5008578;28;20038;-62
2022/10/23 10:43:36;;;;;;;9.68;5.35;;;;;;;;;;5008511;28;20049;-61
2022/10/23 10:46:23;;;;;;;9.30;4.43;;;;;;;;;;5008351;28;20420;-62
2022/10/23 10:48:49;;;;;;;8.73;4.23;;;;;;;;;;5008619;28;20141;-62
2022/10/23 10:51:26;;;;;;;7.40;4.67;;;;;;;;;;5007786;28;20076;-62
2022/10/23 10:54:11;;;;;;;7.80;4.23;;;;;;;;;;5008334;28;20456;-61
2022/10/23 10:56:39;;;;;;;12.93;4.93;;;;;;;;;;5008255;28;20519;-62
2022/10/23 10:59:16;;;;;;;8.40;3.93;;;;;;;;;;5008226;28;20054;-61
2022/10/23 11:01:46;;;;;;;8.40;4.23;;;;;;;;;;5008815;28;20064;-62
2022/10/23 11:04:26;;;;;;;7.03;4.17;;;;;;;;;;5008029;28;20061;-61
2022/10/23 11:06:53;;;;;;;9.93;3.83;;;;;;;;;;5008178;28;20522;-61
2022/10/23 11:09:27;;;;;;;9.80;3.80;;;;;;;;;;5008124;28;20046;-62
2022/10/23 11:11:53;;;;;;;10.17;4.27;;;;;;;;;;5008202;28;20042;-62
2022/10/23 11:14:21;;;;;;;12.17;4.80;;;;;;;;;;5008050;28;20049;-62
2022/10/23 11:16:49;;;;;;;8.77;4.37;;;;;;;;;;5008006;28;20049;-61
2022/10/23 11:19:39;;;;;;;14.83;4.80;;;;;;;;;;5007671;28;20145;-61
2022/10/23 11:22:09;;;;;;;8.57;4.17;;;;;;;;;;4998116;28;20420;-61
2022/10/23 11:24:47;;;;;;;7.53;3.60;;;;;;;;;;5007699;28;20583;-61
2022/10/23 11:27:19;;;;;;;13.77;3.93;;;;;;;;;;5008142;28;20046;-61
2022/10/23 11:29:57;;;;;;;9.83;4.30;;;;;;;;;;5008255;28;20089;-61
2022/10/23 11:32:23;;;;;;;10.50;3.90;;;;;;;;;;5008075;28;20060;-61
2022/10/23 11:34:57;;;;;;;11.43;4.13;;;;;;;;;;5007730;28;20412;-61
2022/10/23 11:37:25;;;;;;;10.40;3.83;;;;;;;;;;5007697;28;20058;-62
2022/10/23 11:40:01;;;;;;;9.97;3.57;;;;;;;;;;5008056;28;20050;-62
2022/10/23 11:42:46;;;;;;;13.37;3.50;;;;;;;;;;5007447;28;20072;-61
2022/10/23 11:45:25;;;;;;;6.33;2.93;;;;;;;;;;5007852;28;20049;-61
2022/10/23 11:48:05;;;;;;;9.20;3.40;;;;;;;;;;5007914;28;20060;-61
2022/10/23 11:50:50;;;;;;;9.07;3.27;;;;;;;;;;5006770;28;20108;-61
2022/10/23 11:53:31;;;;;;;11.50;3.33;;;;;;;;;;5007033;28;20058;-61
2022/10/23 11:56:00;;;;;;;8.30;2.90;;;;;;;;;;5007515;28;20045;-61
2022/10/23 11:58:30;;;;;;;6.43;3.10;;;;;;;;;;5007551;28;20089;-61
2022/10/23 12:01:02;;;;;;;8.47;3.43;;;;;;;;;;5007286;28;20223;-61
2022/10/23 12:03:31;;;;;;;8.13;3.40;;;;;;;;;;5007447;28;20057;-61
2022/10/23 12:06:02;;;;;;;8.07;3.83;;;;;;;;;;5007640;28;20046;-61
2022/10/23 12:08:30;;;;;;;7.10;3.73;;;;;;;;;;5007485;28;20058;-61
2022/10/23 12:10:56;;;;;;;9.30;4.03;;;;;;;;;;5007777;28;20415;-61
2022/10/23 12:13:28;;;;;;;9.67;3.23;;;;;;;;;;5007051;28;20042;-61
2022/10/23 12:15:54;;;;;;;12.33;3.57;;;;;;;;;;5007689;28;20087;-61
2022/10/23 12:18:21;;;;;;;7.33;3.20;;;;;;;;;;5007069;28;20484;-61
2022/10/23 12:20:50;;;;;;;5.53;2.80;;;;;;;;;;5007010;28;20053;-61
2022/10/23 12:23:22;;;;;;;10.13;3.00;;;;;;;;;;5006098;28;20191;-62
2022/10/23 12:26:08;;;;;;;7.43;3.10;;;;;;;;;;5007471;28;20371;-61
2022/10/23 12:28:39;;;;;;;10.70;2.73;;;;;;;;;;5007906;28;20451;-62
2022/10/23 12:31:16;;;;;;;9.17;3.10;;;;;;;;;;5007592;28;20042;-62
2022/10/23 12:33:45;;;;;;;8.80;3.50;;;;;;;;;;5007097;28;20135;-61
2022/10/23 12:36:11;;;;;;;9.07;3.20;;;;;;;;;;5007138;28;20112;-61
2022/10/23 12:38:48;;;;;;;6.47;2.63;;;;;;;;;;5010243;28;20081;-61
2022/10/23 12:41:20;;;;;;;8.60;3.47;;;;;;;;;;5010549;28;20058;-61
2022/10/23 12:43:53;;;;;;;8.57;2.95;;;;;;;;;;5010961;28;20103;-61
2022/10/23 12:46:25;;;;;;;5.97;2.90;;;;;;;;;;5011038;28;20585;-61
2022/10/23 12:48:52;;;;;;;7.50;2.60;;;;;;;;;;5010784;28;20081;-61
2022/10/23 12:51:34;;;;;;;5.90;2.83;;;;;;;;;;5010362;28;20045;-61
2022/10/23 12:54:01;;;;;;;8.63;3.43;;;;;;;;;;5010712;28;20072;-61
2022/10/23 12:56:33;;;;;;;8.63;2.90;;;;;;;;;;5010510;28;20439;-62
2022/10/23 12:59:02;;;;;;;7.03;2.47;;;;;;;;;;5010192;28;20220;-61
2022/10/23 13:01:33;;;;;;;5.67;2.53;;;;;;;;;;5010460;28;20494;-61
2022/10/23 13:04:02;;;;;;;10.47;2.90;;;;;;;;;;5010471;28;20416;-61
2022/10/23 13:06:28;;;;;;;5.80;2.80;;;;;;;;;;5010466;28;20111;-61
2022/10/23 13:08:55;;;;;;;6.77;2.80;;;;;;;;;;5010219;28;20050;-63
2022/10/23 13:11:21;;;;;;;7.10;3.30;;;;;;;;;;5010205;28;20042;-61
2022/10/23 13:13:48;;;;;;;9.53;4.30;;;;;;;;;;5010190;28;20046;-61
2022/10/23 13:16:15;;;;;;;8.40;3.07;;;;;;;;;;5008946;28;20053;-62
2022/10/23 13:18:41;;;;;;;9.33;3.00;;;;;;;;;;5010282;28;20457;-61
2022/10/23 13:21:17;;;;;;;8.77;2.87;;;;;;;;;;5008886;28;20061;-61
2022/10/23 13:23:44;;;;;;;5.30;2.80;;;;;;;;;;5010191;28;20061;-61
2022/10/23 13:26:29;;;;;;;5.23;2.53;;;;;;;;;;5009776;28;20096;-61
2022/10/23 13:28:55;;;;;;;5.00;2.60;;;;;;;;;;5009959;28;20085;-61
2022/10/23 13:31:32;;;;;;;7.00;2.80;;;;;;;;;;5009963;28;20050;-62
2022/10/23 13:33:58;;;;;;;10.50;2.80;;;;;;;;;;5008497;28;20042;-62
2022/10/23 13:36:26;;;;;;;8.87;3.20;;;;;;;;;;5009196;28;20407;-61
2022/10/23 13:39:01;;;;;;;7.73;2.60;;;;;;;;;;5010040;28;20505;-61
2022/10/23 13:41:28;;;;;;;5.00;2.60;;;;;;;;;;5009785;28;20050;-62
2022/10/23 13:43:54;;;;;;;7.17;3.10;;;;;;;;;;5009596;28;20060;-62
2022/10/23 13:46:22;;;;;;;5.30;2.97;;;;;;;;;;5009752;28;20115;-61
2022/10/23 13:48:48;;;;;;;10.80;2.70;;;;;;;;;;5008955;28;20046;-61
2022/10/23 13:51:18;;;;;;;10.20;3.77;;;;;;;;;;5009519;28;20048;-61
2022/10/23 13:53:44;;;;;;;9.10;3.50;;;;;;;;;;5009625;28;20107;-61
2022/10/23 13:56:14;;;;;;;6.83;3.03;;;;;;;;;;5009293;28;20121;-61
2022/10/23 13:58:40;;;;;;;8.90;3.37;;;;;;;;;;5009022;28;20053;-61
2022/10/23 14:01:12;;;;;;;5.43;2.37;;;;;;;;;;5009471;28;20049;-62
2022/10/23 14:03:38;;;;;;;8.57;2.90;;;;;;;;;;5009283;28;20049;-61
2022/10/23 14:06:04;;;;;;;9.37;3.27;;;;;;;;;;5009578;28;20045;-61
2022/10/23 14:08:30;;;;;;;12.47;2.87;;;;;;;;;;5009187;28;20048;-61
2022/10/23 14:10:56;;;;;;;7.83;3.33;;;;;;;;;;5009144;28;20397;-61
2022/10/23 14:13:22;;;;;;;5.87;2.60;;;;;;;;;;5008808;28;20161;-61
2022/10/23 14:15:54;;;;;;;8.57;3.00;;;;;;;;;;5008975;28;20053;-61
2022/10/23 14:18:20;;;;;;;12.17;3.00;;;;;;;;;;5009150;28;20085;-61
2022/10/23 14:20:46;;;;;;;7.90;2.93;;;;;;;;;;5008677;28;20384;-61
2022/10/23 14:23:12;;;;;;;12.03;3.17;;;;;;;;;;5008955;28;20042;-62
2022/10/23 14:25:39;;;;;;;7.57;2.70;;;;;;;;;;5009077;28;20046;-61
2022/10/23 14:28:05;;;;;;;5.87;2.73;;;;;;;;;;5008513;28;20057;-61
2022/10/23 14:30:31;;;;;;;5.63;2.67;;;;;;;;;;5008840;28;20038;-61
2022/10/23 14:32:57;;;;;;;6.53;3.43;;;;;;;;;;5007597;28;20041;-62